^^
Portofino Weather Station Historical Data
 
Daily Summary for September 05, 2026 Units:  English    Metric   Both
Daily Weekly Monthly Yearly
  Current: High: Low: Average:
Temperature: 74 °F 96.7 °F 70.3 °F 78.4 °F
Dew Point: 71.8 °F 79.4 °F 68.5 °F 72.3 °F
Humidity: 93% 95% 49.6% 84%
Wind Speed: 1.2mph 20.5mph 0mph 1.5mph
Wind Gust: 3.5mph 39.1mph - -
WindENE - - SSW
Pressure: 29.88 in 29.98 in 29.80 in -
Precipitation: 0.42 in      
 
 
Tabular Data for September 05, 2026
Time Temperature Dew Point Pressure Wind Wind Speed Wind Gust Humidity Rainfall Rate (Hourly)
00:09 71.6 °F 69.2 °F 29.98 in WNW 0.3 mph 2.3 mph 92% 0.01 in
00:14 71.6 °F 69.2 °F 29.98 in WNW 0.2 mph 1.2 mph 92% 0.01 in
00:19 71.6 °F 69.3 °F 29.97 in NW 0.8 mph 2.3 mph 92.4% 0.01 in
00:24 71.6 °F 69.4 °F 29.97 in NNW 0.1 mph 2.3 mph 92.8% 0.01 in
00:29 71.6 °F 69.4 °F 29.97 in NW 0.6 mph 2.3 mph 92.7% 0.01 in
00:34 71.6 °F 69.5 °F 29.97 in NNW 0.3 mph 2.3 mph 93% 0.01 in
00:39 71.6 °F 69.5 °F 29.97 in North 0.3 mph 1.2 mph 93% 0.00 in
00:44 71.5 °F 69.4 °F 29.97 in North 0.6 mph 1.2 mph 93% 0.00 in
00:49 71.5 °F 69.4 °F 29.97 in Calm   1.2 mph 93% 0.00 in
00:54 71.5 °F 69.4 °F 29.97 in Calm   1.2 mph 93% 0.00 in
00:59 71.5 °F 69.4 °F 29.97 in SE 0.7 mph 2.3 mph 93% 0.00 in
01:04 71.4 °F 69.3 °F 29.96 in SSE 0.6 mph 1.2 mph 93% 0.00 in
01:09 71.4 °F 69.3 °F 29.96 in WSW 0.4 mph 1.2 mph 93% 0.00 in
01:14 71.5 °F 69.4 °F 29.96 in Calm     93% 0.00 in
01:19 71.5 °F 69.4 °F 29.95 in Calm     93% 0.00 in
01:24 71.5 °F 69.4 °F 29.95 in South 0.4 mph 2.3 mph 93% 0.00 in
01:29 71.5 °F 69.4 °F 29.96 in ENE 1.5 mph 2.3 mph 93% 0.00 in
01:34 71.5 °F 69.5 °F 29.96 in ENE 1.5 mph 3.5 mph 93.1% 0.00 in
01:39 71.5 °F 69.6 °F 29.96 in ESE 0.1 mph 1.2 mph 93.5% 0.00 in
01:44 71.5 °F 69.5 °F 29.96 in ESE 0.7 mph 1.2 mph 93.4% 0.00 in
01:49 71.6 °F 69.8 °F 29.95 in ESE 0.3 mph 2.3 mph 94% 0.00 in
01:54 71.6 °F 69.8 °F 29.95 in ESE 0.1 mph 1.2 mph 94% 0.00 in
01:59 71.6 °F 69.8 °F 29.95 in Calm     94% 0.00 in
02:04 71.5 °F 69.7 °F 29.95 in Calm     94% 0.00 in
02:09 71.5 °F 69.7 °F 29.95 in ESE 0.2 mph 2.3 mph 94% 0.00 in
02:14 71.4 °F 69.6 °F 29.95 in SSW 1.5 mph 2.3 mph 93.7% 0.00 in
02:19 71.4 °F 69.6 °F 29.94 in SSW 1.2 mph 2.3 mph 94% 0.00 in
02:24 71.4 °F 69.6 °F 29.94 in SW 0.8 mph 2.3 mph 94% 0.00 in
02:29 71.4 °F 69.6 °F 29.94 in WSW 0.6 mph 1.2 mph 94% 0.00 in
02:34 71.4 °F 69.6 °F 29.92 in WSW 0.4 mph 2.3 mph 94% 0.00 in
02:39 71.4 °F 69.5 °F 29.92 in WSW 0.2 mph 1.2 mph 93.5% 0.00 in
02:44 71.4 °F 69.3 °F 29.92 in Calm   1.2 mph 93.2% 0.00 in
02:49 71.3 °F 69.2 °F 29.92 in Calm     93% 0.00 in
02:54 71.3 °F 69.3 °F 29.92 in Calm     93.3% 0.00 in
02:59 71.3 °F 69.5 °F 29.92 in WSW 0.1 mph 2.3 mph 94% 0.00 in
03:04 71.3 °F 69.5 °F 29.92 in Calm   1.2 mph 94% 0.00 in
03:09 71.3 °F 69.5 °F 29.92 in WSW 0.1 mph 2.3 mph 94% 0.00 in
03:14 71.3 °F 69.5 °F 29.92 in Calm   2.3 mph 94% 0.00 in
03:19 71.3 °F 69.5 °F 29.91 in Calm   1.2 mph 94% 0.00 in
03:24 71.2 °F 69.4 °F 29.91 in Calm   2.3 mph 94% 0.00 in
03:29 71.2 °F 69.4 °F 29.91 in WSW 0.5 mph 2.3 mph 94% 0.00 in
03:34 71.2 °F 69.4 °F 29.90 in WSW 1 mph 2.3 mph 94% 0.00 in
03:39 71.1 °F 69.3 °F 29.90 in Calm   2.3 mph 94% 0.00 in
03:44 71.1 °F 69.3 °F 29.90 in Calm     94% 0.00 in
03:49 71.1 °F 69.3 °F 29.90 in WSW 0.3 mph 2.3 mph 94% 0.00 in
03:54 71.1 °F 69.3 °F 29.90 in WSW 0.3 mph 1.2 mph 94% 0.00 in
03:59 71.1 °F 69.3 °F 29.90 in WSW 0.1 mph 1.2 mph 94% 0.00 in
04:04 71.1 °F 69.3 °F 29.90 in Calm     94% 0.00 in
04:09 71.1 °F 69.3 °F 29.90 in Calm     94% 0.00 in
04:14 71 °F 69.2 °F 29.90 in Calm     94% 0.00 in
04:19 71 °F 69.2 °F 29.89 in Calm     94% 0.00 in
04:24 70.9 °F 69.1 °F 29.89 in Calm     94% 0.00 in
04:29 70.9 °F 69.1 °F 29.89 in Calm     94% 0.00 in
04:34 70.8 °F 69 °F 29.89 in Calm     94% 0.00 in
04:39 70.8 °F 69 °F 29.89 in Calm   1.2 mph 94% 0.00 in
04:44 70.9 °F 69.1 °F 29.89 in WSW 0.3 mph 2.3 mph 94% 0.00 in
04:49 71 °F 69.2 °F 29.88 in WSW 0.1 mph 2.3 mph 94% 0.00 in
04:54 71.1 °F 69.3 °F 29.88 in WSW 0.4 mph 2.3 mph 94% 0.00 in
04:59 71.1 °F 69.3 °F 29.88 in Calm     94% 0.00 in
05:04 71.1 °F 69.3 °F 29.88 in Calm     94% 0.00 in
05:09 71.1 °F 69.3 °F 29.88 in Calm     94% 0.00 in
05:14 71 °F 69.2 °F 29.88 in Calm     94% 0.00 in
05:19 70.9 °F 69.1 °F 29.88 in Calm     94% 0.00 in
05:24 70.9 °F 69.1 °F 29.88 in Calm     94% 0.00 in
05:29 70.8 °F 69 °F 29.88 in Calm     94% 0.00 in
05:34 70.8 °F 69 °F 29.88 in Calm   1.2 mph 94% 0.00 in
05:39 70.7 °F 68.9 °F 29.88 in WSW 0.1 mph 2.3 mph 94% 0.00 in
05:44 70.6 °F 68.8 °F 29.88 in Calm     94% 0.00 in
05:49 70.6 °F 68.8 °F 29.87 in Calm     94% 0.00 in
05:54 70.5 °F 68.7 °F 29.87 in Calm     94% 0.00 in
05:59 70.5 °F 68.7 °F 29.88 in WSW 0.1 mph 2.3 mph 94% 0.00 in
06:04 70.5 °F 68.7 °F 29.88 in Calm   2.3 mph 94% 0.00 in
06:09 70.6 °F 68.8 °F 29.88 in Calm     94% 0.00 in
06:14 70.5 °F 68.7 °F 29.88 in Calm   2.3 mph 94% 0.00 in
06:19 70.4 °F 68.6 °F 29.88 in WSW 0.1 mph 1.2 mph 94% 0.00 in
06:24 70.4 °F 68.6 °F 29.88 in WSW 0.4 mph 1.2 mph 94% 0.00 in
06:29 70.5 °F 68.7 °F 29.88 in WSW 0.1 mph 2.3 mph 94% 0.00 in
06:34 70.6 °F 68.8 °F 29.88 in WSW 0.1 mph 2.3 mph 94% 0.00 in
06:39 70.5 °F 68.7 °F 29.88 in Calm   1.2 mph 94% 0.00 in
06:44 70.4 °F 68.6 °F 29.88 in WSW 0.3 mph 2.3 mph 94% 0.00 in
06:49 70.3 °F 68.5 °F 29.88 in WSW 0.2 mph 2.3 mph 94% 0.00 in
06:54 70.3 °F 68.5 °F 29.88 in WSW 0.1 mph 1.2 mph 94% 0.00 in
06:59 70.3 °F 68.5 °F 29.89 in WSW 0.1 mph 1.2 mph 94% 0.00 in
07:04 70.3 °F 68.5 °F 29.89 in Calm     94% 0.00 in
07:09 70.3 °F 68.5 °F 29.89 in WSW 0.1 mph 2.3 mph 94% 0.00 in
07:14 70.3 °F 68.5 °F 29.89 in Calm   1.2 mph 94% 0.00 in
07:19 70.4 °F 68.6 °F 29.89 in Calm     94% 0.00 in
07:24 70.7 °F 69 °F 29.89 in Calm     94.4% 0.00 in
07:29 71.2 °F 69.7 °F 29.89 in Calm     95% 0.00 in
07:34 71.6 °F 70.1 °F 29.89 in Calm   1.2 mph 95% 0.00 in
07:39 72 °F 70.5 °F 29.89 in Calm     95% 0.00 in
07:44 73 °F 71.5 °F 29.90 in Calm     95% 0.00 in
07:49 73.5 °F 72 °F 29.90 in Calm     95% 0.00 in
07:54 73.3 °F 71.6 °F 29.90 in NW 0.1 mph 2.3 mph 94.3% 0.00 in
07:59 73.4 °F 71.6 °F 29.91 in WNW 0.1 mph 2.3 mph 94% 0.00 in
08:04 73.6 °F 71.8 °F 29.91 in WNW 0.4 mph 1.2 mph 94% 0.00 in
08:09 73.7 °F 71.6 °F 29.91 in SW 1.2 mph 2.3 mph 93.2% 0.00 in
08:14 73.8 °F 71.6 °F 29.91 in WSW 0.9 mph 2.3 mph 93% 0.00 in
08:19 74 °F 71.7 °F 29.91 in WSW 1.2 mph 2.3 mph 92.8% 0.00 in
08:24 74.4 °F 72.2 °F 29.91 in SW 1.6 mph 3.5 mph 92.9% 0.00 in
08:29 74.8 °F 72.3 °F 29.91 in SW 1.7 mph 3.5 mph 92% 0.00 in
08:34 75.3 °F 72.8 °F 29.91 in WSW 1.1 mph 2.3 mph 91.8% 0.00 in
08:39 75.8 °F 73.1 °F 29.91 in West 0.7 mph 2.3 mph 91.5% 0.00 in
08:44 76.2 °F 73.3 °F 29.91 in WNW 0.7 mph 2.3 mph 90.7% 0.00 in
08:49 76.7 °F 73.8 °F 29.91 in West 1.1 mph 2.3 mph 90.5% 0.00 in
08:54 77.3 °F 74.3 °F 29.91 in WNW 1.3 mph 3.5 mph 90.6% 0.00 in
08:59 78.1 °F 74.9 °F 29.91 in NW 1.4 mph 5.8 mph 89.9% 0.00 in
09:04 78.5 °F 74.6 °F 29.90 in NW 2.8 mph 6.9 mph 88% 0.00 in
09:09 78.9 °F 74.9 °F 29.90 in NW 2.6 mph 6.9 mph 87.5% 0.00 in
09:14 79.4 °F 75.3 °F 29.90 in WNW 1.6 mph 4.6 mph 87.2% 0.00 in
09:19 79.9 °F 75.3 °F 29.90 in WNW 2.2 mph 4.6 mph 86.1% 0.00 in
09:24 80.3 °F 75.6 °F 29.90 in WNW 2.4 mph 5.8 mph 85.6% 0.00 in
09:29 80.8 °F 75.6 °F 29.90 in WNW 2.7 mph 5.8 mph 84.5% 0.00 in
09:34 81.3 °F 76.2 °F 29.89 in WNW 2.5 mph 4.6 mph 84.4% 0.00 in
09:39 81.8 °F 76 °F 29.89 in West 2.1 mph 4.6 mph 82.6% 0.00 in
09:44 82.3 °F 76.2 °F 29.89 in West 2.7 mph 5.8 mph 81.8% 0.00 in
09:49 82.8 °F 76.6 °F 29.89 in WNW 2.7 mph 5.8 mph 81.5% 0.00 in
09:54 83.6 °F 77.4 °F 29.89 in West 1 mph 2.3 mph 81.9% 0.00 in
09:59 84.3 °F 77.1 °F 29.89 in NW 2.3 mph 4.6 mph 79% 0.00 in
10:04 84.7 °F 76.8 °F 29.89 in West 3 mph 5.8 mph 77.2% 0.00 in
10:09 85.3 °F 76.9 °F 29.89 in WNW 3 mph 5.8 mph 75.9% 0.00 in
10:14 85.7 °F 76.8 °F 29.90 in WNW 2.4 mph 6.9 mph 75% 0.00 in
10:19 85.9 °F 76.6 °F 29.90 in WNW 3.5 mph 6.9 mph 74% 0.00 in
10:24 86.3 °F 77.1 °F 29.90 in NW 2.4 mph 4.6 mph 74.1% 0.00 in
10:29 87.3 °F 77.3 °F 29.90 in NW 2 mph 4.6 mph 72.3% 0.00 in
10:34 87.4 °F 77.4 °F 29.90 in WNW 3.3 mph 5.8 mph 72.4% 0.00 in
10:39 87.7 °F 77.5 °F 29.90 in NW 2.5 mph 5.8 mph 72.1% 0.00 in
10:44 87.9 °F 77.2 °F 29.90 in NNW 3.1 mph 6.9 mph 70.7% 0.00 in
10:49 88.3 °F 77.5 °F 29.90 in NNW 3.3 mph 6.9 mph 70.7% 0.00 in
10:54 88.7 °F 77.7 °F 29.90 in NW 3.5 mph 6.9 mph 70.2% 0.00 in
10:59 89.1 °F 77.4 °F 29.90 in NW 4.2 mph 6.9 mph 68.5% 0.00 in
11:04 89 °F 76.4 °F 29.90 in WNW 3.4 mph 8.1 mph 66.6% 0.00 in
11:09 89.5 °F 77.2 °F 29.90 in NNW 2 mph 4.6 mph 67.3% 0.00 in
11:14 90 °F 77.3 °F 29.90 in WNW 2.6 mph 5.8 mph 66.3% 0.00 in
11:19 89.7 °F 76.7 °F 29.90 in WNW 3.3 mph 5.8 mph 65.6% 0.00 in
11:24 90.1 °F 77.9 °F 29.90 in NW 2.5 mph 4.6 mph 67.6% 0.00 in
11:29 90.4 °F 76.9 °F 29.90 in WNW 2.6 mph 6.9 mph 64.9% 0.00 in
11:34 90.2 °F 76.6 °F 29.89 in WNW 3.1 mph 6.9 mph 64.6% 0.00 in
11:39 90 °F 76 °F 29.89 in NNW 6 mph 10.4 mph 63.5% 0.00 in
11:44 90.3 °F 75.8 °F 29.89 in NNW 4.9 mph 9.2 mph 62.6% 0.00 in
11:49 90.6 °F 76 °F 29.89 in WNW 3.8 mph 6.9 mph 62.4% 0.00 in
11:54 90.9 °F 76.4 °F 29.89 in NNW 3.8 mph 6.9 mph 62.8% 0.00 in
11:59 91.4 °F 76.3 °F 29.89 in NW 4.4 mph 8.1 mph 61.6% 0.00 in
12:04 91 °F 75.8 °F 29.89 in NW 3.2 mph 6.9 mph 61.1% 0.00 in
12:09 91.6 °F 77.2 °F 29.89 in NNW 3.1 mph 5.8 mph 62.9% 0.00 in
12:14 91.9 °F 77.2 °F 29.89 in NW 2.8 mph 6.9 mph 62.5% 0.00 in
12:19 92.4 °F 76.9 °F 29.88 in North 2.5 mph 6.9 mph 60.9% 0.00 in
12:24 92.7 °F 76.5 °F 29.88 in North 4.2 mph 6.9 mph 59.5% 0.00 in
12:29 93 °F 76.8 °F 29.88 in NNW 2.8 mph 4.6 mph 59.6% 0.00 in
12:34 93 °F 75.8 °F 29.87 in NNW 3.5 mph 5.8 mph 57.6% 0.00 in
12:39 93 °F 76.3 °F 29.87 in NNW 2.1 mph 5.8 mph 58.6% 0.00 in
12:44 93.6 °F 76 °F 29.87 in NNE 2.1 mph 3.5 mph 57% 0.00 in
12:49 93.5 °F 76.1 °F 29.87 in NW 1.4 mph 3.5 mph 57.3% 0.00 in
12:54 93.5 °F 76 °F 29.87 in SW 2.2 mph 4.6 mph 57% 0.00 in
12:59 93.6 °F 76.6 °F 29.87 in NW 2.6 mph 6.9 mph 58.1% 0.00 in
13:04 94 °F 75.5 °F 29.86 in North 1.7 mph 3.5 mph 55.2% 0.00 in
13:09 94.5 °F 76.1 °F 29.86 in NNW 1.9 mph 6.9 mph 55.5% 0.00 in
13:14 94.7 °F 74.9 °F 29.86 in NW 2.1 mph 6.9 mph 53.1% 0.00 in
13:19 95 °F 75.4 °F 29.86 in NNE 2.8 mph 6.9 mph 53.4% 0.00 in
13:24 95.2 °F 76.1 °F 29.86 in North 3.2 mph 8.1 mph 54.4% 0.00 in
13:29 95.2 °F 75.7 °F 29.86 in NE 3.6 mph 6.9 mph 53.6% 0.00 in
13:34 95.4 °F 75.7 °F 29.85 in ENE 2.3 mph 4.6 mph 53.2% 0.00 in
13:39 95.6 °F 75.3 °F 29.85 in ENE 2.3 mph 4.6 mph 52.3% 0.00 in
13:44 94.8 °F 74.7 °F 29.85 in WNW 1.8 mph 4.6 mph 52.4% 0.00 in
13:49 94.8 °F 74.6 °F 29.84 in North 3.1 mph 8.1 mph 52.4% 0.00 in
13:54 95 °F 76.5 °F 29.84 in NE 3.4 mph 8.1 mph 55.4% 0.00 in
13:59 94.8 °F 75.1 °F 29.84 in NNW 3.6 mph 6.9 mph 53.1% 0.00 in
14:04 94.7 °F 74.7 °F 29.83 in NW 2.6 mph 5.8 mph 52.6% 0.00 in
14:09 95 °F 74.1 °F 29.83 in West 1.4 mph 4.6 mph 51.2% 0.00 in
14:14 95 °F 74.6 °F 29.83 in NW 1.4 mph 3.5 mph 52.1% 0.00 in
14:19 94.9 °F 75.5 °F 29.83 in WSW 1.4 mph 3.5 mph 53.8% 0.00 in
14:24 94.9 °F 76.3 °F 29.83 in West 1.6 mph 3.5 mph 55.3% 0.00 in
14:29 95.4 °F 74.1 °F 29.83 in WNW 1.7 mph 4.6 mph 50.4% 0.00 in
14:34 96.7 °F 74.8 °F 29.81 in NE 2.2 mph 5.8 mph 49.6% 0.00 in
14:39 96.1 °F 77.2 °F 29.81 in ESE 3.5 mph 6.9 mph 54.7% 0.00 in
14:44 95 °F 77.6 °F 29.81 in East 2.7 mph 4.6 mph 57.3% 0.00 in
14:49 95 °F 77 °F 29.81 in ENE 3.1 mph 8.1 mph 56.3% 0.00 in
14:54 94.4 °F 76.8 °F 29.81 in ENE 3.4 mph 5.8 mph 56.9% 0.00 in
14:59 94.4 °F 77 °F 29.81 in ENE 2.9 mph 5.8 mph 57.3% 0.00 in
15:04 94.9 °F 77.1 °F 29.81 in ESE 2.6 mph 4.6 mph 56.7% 0.00 in
15:09 95 °F 77.6 °F 29.81 in SE 3.3 mph 5.8 mph 57.5% 0.00 in
15:14 94.6 °F 77.5 °F 29.81 in East 2.6 mph 5.8 mph 58% 0.00 in
15:19 94.7 °F 77.4 °F 29.81 in ENE 3.2 mph 6.9 mph 57.6% 0.00 in
15:24 94.3 °F 77 °F 29.81 in East 2.3 mph 4.6 mph 57.7% 0.00 in
15:29 93.9 °F 77.1 °F 29.81 in ESE 1.9 mph 4.6 mph 58.4% 0.00 in
15:34 93.4 °F 77.7 °F 29.80 in ESE 1.6 mph 3.5 mph 60.6% 0.00 in
15:39 92.9 °F 77.5 °F 29.80 in East 1.2 mph 3.5 mph 61.1% 0.00 in
15:44 92.6 °F 78.1 °F 29.80 in East 1 mph 2.3 mph 62.9% 0.00 in
15:49 92.4 °F 79.4 °F 29.80 in NE 0.7 mph 2.3 mph 66.1% 0.00 in
15:54 92 °F 78.1 °F 29.80 in North 4.3 mph 12.7 mph 64% 0.00 in
15:59 89.3 °F 73.7 °F 29.86 in North 20.5 mph 39.1 mph 60.3% 0.00 in
16:04 83.3 °F 71.8 °F 29.86 in North 19.5 mph 39.1 mph 68.6% 0.03 in
16:09 78.8 °F 71.5 °F 29.86 in North 11.9 mph 24.2 mph 78.4% 0.22 in
16:14 76.6 °F 70.9 °F 29.86 in East 7.2 mph 13.8 mph 82.6% 0.38 in
16:19 75.3 °F 70.2 °F 29.85 in ENE 9.3 mph 19.6 mph 84.1% 0.41 in
16:24 74.5 °F 69.4 °F 29.85 in East 3.9 mph 12.7 mph 84.2% 0.41 in
16:29 74.1 °F 69.1 °F 29.85 in SW 1.8 mph 3.5 mph 84.3% 0.41 in
16:34 73.9 °F 69.6 °F 29.83 in SSW 3 mph 4.6 mph 86.5% 0.41 in
16:39 73.8 °F 69.7 °F 29.83 in SSE 3.2 mph 5.8 mph 87% 0.41 in
16:44 73.6 °F 69.5 °F 29.83 in SE 1.3 mph 3.5 mph 87.2% 0.41 in
16:49 73.4 °F 69.4 °F 29.82 in NW 0.2 mph 2.3 mph 87.3% 0.41 in
16:54 73.2 °F 69.8 °F 29.82 in North 1 mph 2.3 mph 88.9% 0.41 in
16:59 73.2 °F 70 °F 29.82 in ESE 1 mph 2.3 mph 89.6% 0.41 in
17:04 73.2 °F 70.1 °F 29.81 in North 2.8 mph 4.6 mph 90% 0.41 in
17:09 73 °F 69.9 °F 29.81 in NNW 2.2 mph 4.6 mph 89.8% 0.35 in
17:14 72.9 °F 69.8 °F 29.81 in NNW 0.8 mph 2.3 mph 90% 0.16 in
17:19 73 °F 70.1 °F 29.81 in North 0.7 mph 2.3 mph 90.8% 0.03 in
17:24 73.1 °F 70.3 °F 29.81 in West 0.1 mph 1.2 mph 91% 0.01 in
17:29 73.2 °F 70.4 °F 29.81 in West 1.4 mph 2.3 mph 91% 0.01 in
17:34 73.4 °F 70.8 °F 29.81 in NNW 2.5 mph 4.6 mph 91.7% 0.01 in
17:39 73.5 °F 71 °F 29.81 in NW 2.3 mph 4.6 mph 92% 0.01 in
17:44 73.7 °F 71.1 °F 29.82 in SW 3.5 mph 5.8 mph 91.8% 0.01 in
17:49 73.7 °F 70.9 °F 29.82 in WSW 2.1 mph 4.6 mph 91% 0.01 in
17:54 73.6 °F 70.8 °F 29.82 in WNW 0.8 mph 2.3 mph 91% 0.01 in
17:59 73.6 °F 70.8 °F 29.82 in WNW 0.6 mph 2.3 mph 91% 0.01 in
18:04 73.6 °F 70.8 °F 29.82 in NW 0.3 mph 2.3 mph 91% 0.01 in
18:09 73.7 °F 71.2 °F 29.82 in North 0.3 mph 1.2 mph 92% 0.01 in
18:14 73.7 °F 71.2 °F 29.82 in NW 0.4 mph 1.2 mph 92% 0.00 in
18:19 73.8 °F 71.3 °F 29.82 in WSW 1.5 mph 2.3 mph 92% 0.00 in
18:24 73.9 °F 71.4 °F 29.82 in WSW 1.4 mph 3.5 mph 92% 0.00 in
18:29 74 °F 71.5 °F 29.83 in NE 0.9 mph 2.3 mph 92% 0.00 in
18:34 74.1 °F 71.7 °F 29.83 in ESE 1.8 mph 3.5 mph 92.4% 0.00 in
18:39 74.2 °F 72 °F 29.83 in East 2 mph 3.5 mph 93% 0.00 in
18:44 74.1 °F 71.7 °F 29.83 in East 2 mph 3.5 mph 92.4% 0.00 in
18:49 74 °F 71.5 °F 29.82 in ENE 2.5 mph 5.8 mph 92% 0.00 in
18:54 74 °F 71.6 °F 29.82 in ESE 1.7 mph 3.5 mph 92.3% 0.00 in
18:59 74 °F 71.8 °F 29.83 in East 1.9 mph 2.3 mph 93% 0.00 in
19:04 74 °F 71.7 °F 29.83 in ENE 1 mph 2.3 mph 92.7% 0.00 in
19:09 74 °F 71.7 °F 29.83 in SE 1.5 mph 2.3 mph 92.7% 0.00 in
19:14 74 °F 71.5 °F 29.83 in East 0.5 mph 2.3 mph 92% 0.00 in
19:19 73.9 °F 71.4 °F 29.83 in North 1.2 mph 2.3 mph 92% 0.00 in
19:24 73.9 °F 71.6 °F 29.83 in NW 0.8 mph 2.3 mph 92.7% 0.00 in
19:29 73.9 °F 71.7 °F 29.83 in SW 0.4 mph 2.3 mph 93% 0.00 in
19:34 73.9 °F 71.7 °F 29.83 in NNE 1.5 mph 2.3 mph 93% 0.00 in
19:39 74 °F 71.8 °F 29.83 in North 0.4 mph 2.3 mph 93% 0.00 in
19:44 74 °F 71.8 °F 29.83 in WSW 0.4 mph 2.3 mph 93% 0.00 in
19:49 74 °F 71.8 °F 29.83 in WSW 0.3 mph 2.3 mph 93% 0.00 in
19:54 73.9 °F 71.7 °F 29.83 in South 0.2 mph 1.2 mph 93% 0.00 in
19:59 73.8 °F 71.6 °F 29.85 in SSE 0.1 mph 1.2 mph 93% 0.00 in
20:04 73.8 °F 71.6 °F 29.85 in SSE 0.2 mph 1.2 mph 93% 0.00 in
20:09 73.7 °F 71.5 °F 29.85 in ESE 1 mph 1.2 mph 93% 0.00 in
20:14 73.7 °F 71.5 °F 29.86 in ENE 0.5 mph 1.2 mph 93% 0.00 in
20:19 73.7 °F 71.5 °F 29.86 in Calm   1.2 mph 93% 0.00 in
20:24 73.7 °F 71.7 °F 29.86 in ENE 0.1 mph 2.3 mph 93.6% 0.00 in
20:29 73.8 °F 72 °F 29.86 in Calm     94% 0.00 in
20:34 74 °F 72.2 °F 29.86 in ENE 0.2 mph 2.3 mph 94% 0.00 in
20:39 74 °F 72.2 °F 29.86 in NE 0.2 mph 2.3 mph 94% 0.00 in
20:44 74.2 °F 72.4 °F 29.87 in North 0.9 mph 1.2 mph 94% 0.00 in
20:49 74.3 °F 72.5 °F 29.87 in North 0.9 mph 2.3 mph 94% 0.00 in
20:54 74.4 °F 72.6 °F 29.87 in NNE 1.9 mph 2.3 mph 94% 0.00 in
20:59 74.4 °F 72.6 °F 29.87 in NNE 1.6 mph 3.5 mph 94% 0.00 in
21:04 74.3 °F 72.5 °F 29.87 in North 1.3 mph 3.5 mph 94% 0.00 in
21:09 74.3 °F 72.5 °F 29.87 in NW 1.6 mph 2.3 mph 94% 0.00 in
21:14 74.3 °F 72.5 °F 29.88 in NW 1 mph 2.3 mph 94% 0.00 in
21:19 74.4 °F 72.6 °F 29.88 in NNE 0.1 mph 1.2 mph 94% 0.00 in
21:24 74.4 °F 72.6 °F 29.88 in NNE 1.1 mph 3.5 mph 94% 0.00 in
21:29 74.3 °F 72.2 °F 29.88 in NE 0.7 mph 2.3 mph 93.1% 0.00 in
21:34 74.2 °F 72 °F 29.88 in NNE 0.5 mph 2.3 mph 93% 0.00 in
21:39 74.2 °F 72 °F 29.88 in NE 0.2 mph 2.3 mph 93% 0.00 in
21:44 74.1 °F 71.9 °F 29.88 in NNE 0.6 mph 2.3 mph 93% 0.00 in
21:49 74 °F 71.8 °F 29.88 in East 0.7 mph 2.3 mph 93% 0.00 in
21:54 74 °F 71.8 °F 29.88 in ENE 1.2 mph 3.5 mph 93% 0.00 in
Clayton, NC Weather
Compliments of Weather Underground - 2 mb

Free counters!